createdAt,value
2017-10-18T18:01:29.171Z,68.43
2017-10-18T18:04:03.100Z,74.40
2017-10-18T18:12:19.540Z,56.50
2017-10-18T18:14:48.768Z,53.63
2017-10-18T18:17:19.020Z,64.53
2017-10-18T18:19:46.553Z,54.23
2017-10-18T18:22:15.809Z,69.70
2017-10-18T18:27:23.615Z,59.00
2017-10-18T18:30:31.567Z,50.13
2017-10-18T18:33:00.363Z,50.73
2017-10-18T18:35:42.515Z,48.80
2017-10-18T18:38:10.122Z,50.93
2017-10-18T18:40:38.674Z,45.10
2017-10-18T18:43:06.207Z,48.33
2017-10-18T18:45:33.835Z,50.33
2017-10-18T18:48:03.219Z,53.97
2017-10-18T18:50:30.796Z,62.83
2017-10-18T18:52:59.171Z,54.73
2017-10-18T18:55:27.060Z,48.37
2017-10-18T18:57:54.634Z,46.40
2017-10-18T19:00:22.263Z,49.55
2017-10-18T19:02:51.660Z,59.63
2017-10-18T19:05:21.205Z,59.73
2017-10-18T19:07:48.830Z,50.07
2017-10-18T19:10:16.499Z,56.07
2017-10-18T19:12:44.804Z,52.23
2017-10-18T19:15:14.060Z,51.23
2017-10-18T19:17:41.587Z,42.90
2017-10-18T19:20:09.132Z,48.47
2017-10-18T19:22:36.863Z,49.13
2017-10-18T19:25:05.163Z,47.65
2017-10-18T19:27:32.704Z,47.03
2017-10-18T19:30:00.639Z,40.33
2017-10-18T19:32:29.223Z,45.50
2017-10-18T19:34:56.835Z,48.87
2017-10-18T19:37:26.475Z,44.75
2017-10-18T19:39:54.061Z,52.77
2017-10-18T19:42:21.657Z,48.38
2017-10-18T19:44:50.190Z,47.60
2017-10-18T19:47:17.819Z,38.60
2017-10-18T19:49:45.452Z,43.47
2017-10-18T19:52:23.757Z,41.37
2017-10-18T19:58:44.970Z,44.27
2017-10-18T20:01:12.712Z,39.70
2017-10-18T20:03:41.152Z,35.37
2017-10-18T20:06:08.784Z,38.37
2017-10-18T20:08:37.095Z,37.03
2017-10-18T20:11:04.633Z,39.73
2017-10-18T20:13:32.976Z,41.50
2017-10-18T20:16:00.552Z,42.08
2017-10-18T20:18:28.091Z,46.67
2017-10-18T20:20:55.660Z,52.13
2017-10-18T20:23:23.204Z,40.97
2017-10-18T20:25:50.731Z,58.17
2017-10-18T20:28:18.319Z,51.33
2017-10-18T20:30:45.850Z,41.23
2017-10-18T20:33:25.440Z,42.33
2017-10-18T20:39:26.571Z,48.83
2017-10-18T20:41:54.151Z,36.00
2017-10-18T20:44:21.723Z,49.50
2017-10-18T20:46:49.355Z,36.47
2017-10-18T20:49:16.959Z,41.07
2017-10-18T20:51:44.500Z,48.42
2017-10-18T20:54:12.063Z,48.87
2017-10-18T20:56:39.655Z,50.50
2017-10-18T20:59:07.979Z,48.53
2017-10-18T21:01:35.640Z,40.85
2017-10-18T21:04:03.720Z,53.10
2017-10-18T21:06:31.267Z,41.00
2017-10-18T21:08:59.134Z,39.93
2017-10-18T21:11:26.671Z,42.10
2017-10-18T21:13:55.036Z,40.63
2017-10-18T21:16:22.611Z,39.42
2017-10-18T21:18:50.163Z,44.10
2017-10-18T21:21:18.516Z,46.73
2017-10-18T21:23:46.084Z,35.43
2017-10-18T21:26:15.441Z,38.00
2017-10-18T21:28:42.992Z,41.50
2017-10-18T21:31:10.613Z,42.75
2017-10-18T21:33:38.156Z,41.80
2017-10-18T21:36:05.695Z,42.80
2017-10-18T21:38:33.299Z,41.67
2017-10-18T21:41:00.875Z,39.57
2017-10-18T21:43:28.472Z,39.27
2017-10-18T21:45:56.046Z,39.17
2017-10-18T21:48:23.659Z,45.10
2017-10-18T21:50:51.203Z,43.23
2017-10-18T21:53:19.571Z,38.40
2017-10-18T21:55:47.339Z,38.03
2017-10-18T21:58:15.536Z,44.20
2017-10-18T22:00:43.098Z,40.23
2017-10-18T22:03:10.745Z,37.90
2017-10-18T22:05:39.545Z,33.90
2017-10-18T22:08:07.979Z,38.67
2017-10-18T22:10:35.523Z,47.17
2017-10-18T22:13:03.062Z,46.10
2017-10-18T22:15:30.707Z,41.28
2017-10-18T22:17:59.101Z,50.20
2017-10-18T22:20:26.699Z,45.90
2017-10-18T22:22:54.282Z,39.20
2017-10-18T22:25:21.810Z,38.53
2017-10-18T22:27:49.348Z,34.57
2017-10-18T22:30:16.999Z,37.40
2017-10-18T22:32:44.611Z,34.05
2017-10-18T22:35:12.148Z,35.10
2017-10-18T22:37:39.791Z,33.93
2017-10-18T22:40:07.362Z,37.03
2017-10-18T22:42:34.991Z,34.20
2017-10-18T22:45:03.372Z,33.37
2017-10-18T22:47:30.935Z,37.20
2017-10-18T22:49:58.476Z,30.10
2017-10-18T22:52:26.807Z,37.78
2017-10-18T22:54:54.347Z,34.17
2017-10-18T22:57:21.887Z,34.60
2017-10-18T22:59:49.488Z,26.55
2017-10-18T23:02:17.018Z,30.57
2017-10-18T23:04:44.552Z,33.67
2017-10-18T23:07:12.255Z,31.37
2017-10-18T23:09:39.808Z,33.50
2017-10-18T23:12:07.660Z,32.55
2017-10-18T23:14:35.217Z,35.97
2017-10-18T23:17:02.752Z,28.97
2017-10-18T23:19:30.370Z,46.23
2017-10-18T23:21:58.011Z,40.77
2017-10-18T23:24:25.596Z,31.27
2017-10-18T23:26:53.140Z,26.20
2017-10-18T23:29:20.715Z,24.73
2017-10-18T23:31:48.248Z,29.20
2017-10-18T23:34:16.488Z,31.83
2017-10-18T23:36:44.132Z,37.70
2017-10-18T23:39:11.753Z,37.00
2017-10-18T23:41:39.290Z,28.30
2017-10-18T23:44:07.795Z,29.90
2017-10-18T23:46:35.332Z,24.83
2017-10-18T23:49:03.672Z,27.37
2017-10-18T23:51:31.252Z,37.80
2017-10-18T23:53:58.787Z,30.90
2017-10-18T23:56:26.324Z,26.90
2017-10-18T23:58:53.879Z,25.83
